地図

経路データ

SID SEASON NUMBER BASIN SUBBASIN NAME ISO_TIME NATURE LAT LON WMO_WIND WMO_PRES WMO_AGENCY TRACK_TYPE DIST2LAND LANDFALL IFLAG USA_AGENCY USA_ATCF_ID USA_LAT USA_LON USA_RECORD USA_STATUS USA_WIND USA_PRES USA_SSHS USA_R34_NE USA_R34_SE USA_R34_SW USA_R34_NW USA_R50_NE USA_R50_SE USA_R50_SW USA_R50_NW USA_R64_NE USA_R64_SE USA_R64_SW USA_R64_NW USA_POCI USA_ROCI USA_RMW USA_EYE TOKYO_LAT TOKYO_LON TOKYO_GRADE TOKYO_WIND TOKYO_PRES TOKYO_R50_DIR TOKYO_R50_LONG TOKYO_R50_SHORT TOKYO_R30_DIR TOKYO_R30_LONG TOKYO_R30_SHORT TOKYO_LAND CMA_LAT CMA_LON CMA_CAT CMA_WIND CMA_PRES HKO_LAT HKO_LON HKO_CAT HKO_WIND HKO_PRES NEWDELHI_LAT NEWDELHI_LON NEWDELHI_GRADE NEWDELHI_WIND NEWDELHI_PRES NEWDELHI_CI NEWDELHI_DP NEWDELHI_POCI REUNION_LAT REUNION_LON REUNION_TYPE REUNION_WIND REUNION_PRES REUNION_TNUM REUNION_CI REUNION_RMW REUNION_R34_NE REUNION_R34_SE REUNION_R34_SW REUNION_R34_NW REUNION_R50_NE REUNION_R50_SE REUNION_R50_SW REUNION_R50_NW REUNION_R64_NE REUNION_R64_SE REUNION_R64_SW REUNION_R64_NW BOM_LAT BOM_LON BOM_TYPE BOM_WIND BOM_PRES BOM_TNUM BOM_CI BOM_RMW BOM_R34_NE BOM_R34_SE BOM_R34_SW BOM_R34_NW BOM_R50_NE BOM_R50_SE BOM_R50_SW BOM_R50_NW BOM_R64_NE BOM_R64_SE BOM_R64_SW BOM_R64_NW BOM_ROCI BOM_POCI BOM_EYE BOM_POS_METHOD BOM_PRES_METHOD NADI_LAT NADI_LON NADI_CAT NADI_WIND NADI_PRES WELLINGTON_LAT WELLINGTON_LON WELLINGTON_WIND WELLINGTON_PRES DS824_LAT DS824_LON DS824_STAGE DS824_WIND DS824_PRES TD9636_LAT TD9636_LON TD9636_STAGE TD9636_WIND TD9636_PRES TD9635_LAT TD9635_LON TD9635_WIND TD9635_PRES TD9635_ROCI NEUMANN_LAT NEUMANN_LON NEUMANN_CLASS NEUMANN_WIND NEUMANN_PRES MLC_LAT MLC_LON MLC_CLASS MLC_WIND MLC_PRES USA_GUST BOM_GUST BOM_GUST_PER REUNION_GUST REUNION_GUST_PER USA_SEAHGT USA_SEARAD_NE USA_SEARAD_SE USA_SEARAD_SW USA_SEARAD_NW STORM_SPEED STORM_DIR
1979167N13071 1979 43 NI AS NOT_NAMED 1979-06-16 00:00:00 TS 13.3000 70.6000 main 408 403 O________OO___ jtwc_io IO021979 13.3000 70.6000 -1 13.3000 70.6000 TC 13.3000 70.6000 1 8 337
1979167N13071 1979 43 NI AS NOT_NAMED 1979-06-16 03:00:00 TS 13.6515 70.4481 main 408 404 P________PP___ IO021979 13.6600 70.4626 -1 13.6600 70.4626 TC 13.6345 70.4193 1 8 336
1979167N13071 1979 43 NI AS NOT_NAMED 1979-06-16 06:00:00 TS 13.9884 70.2802 main 406 406 O________OP___ jtwc_io IO021979 14.0000 70.3000 -1 14.0000 70.3000 TC 13.9652 70.2406 1 7 332
1979167N13071 1979 43 NI AS NOT_NAMED 1979-06-16 09:00:00 TS 14.3011 70.0889 main 413 409 P________PP___ IO021979 14.3075 70.1000 -1 14.3075 70.1000 TC 14.2883 70.0666 1 7 329
1979167N13071 1979 43 NI AS NOT_NAMED 1979-06-16 12:00:00 TS 14.6000 69.9000 main 421 415 O________OO___ jtwc_io IO021979 14.6000 69.9000 -1 14.6000 69.9000 TC 14.6000 69.9000 1 7 331
1979167N13071 1979 43 NI AS NOT_NAMED 1979-06-16 15:00:00 TS 14.8996 69.7469 main 425 415 P________PP___ IO021979 14.9000 69.7499 -1 14.9000 69.7499 TC 14.8989 69.7408 1 7 334
1979167N13071 1979 43 NI AS NOT_NAMED 1979-06-16 18:00:00 TS 15.1974 69.5931 main 421 417 O________OP___ jtwc_io IO021979 15.2000 69.6000 -1 15.2000 69.6000 TC 15.1923 69.5794 1 7 331
1979167N13071 1979 43 NI AS NOT_NAMED 1979-06-16 21:00:00 TS 15.4915 69.4060 main 431 428 P________PP___ IO021979 15.4925 69.4074 -1 15.4925 69.4074 TC 15.4895 69.4033 1 7 328
1979167N13071 1979 43 NI AS NOT_NAMED 1979-06-17 00:00:00 TS 15.8000 69.2000 main 444 443 O________OO___ jtwc_io IO021979 15.8000 69.2000 -1 15.8000 69.2000 TC 15.8000 69.2000 1 8 330
1979167N13071 1979 43 NI AS NOT_NAMED 1979-06-17 03:00:00 TS 16.1508 69.0157 main 460 459 P________PP___ IO021979 16.1424 69.0223 -1 16.1424 69.0223 TC 16.1676 69.0024 1 8 331
1979167N13071 1979 43 NI AS NOT_NAMED 1979-06-17 06:00:00 TS 16.5147 68.7900 main 473 470 O________OP___ jtwc_io IO021979 16.5000 68.8000 -1 16.5000 68.8000 TC 16.5441 68.7699 1 9 326
1979167N13071 1979 43 NI AS NOT_NAMED 1979-06-17 09:00:00 TS 16.8811 68.4941 main 488 477 P________PP___ IO021979 16.8723 68.5025 -1 16.8723 68.5025 TC 16.8986 68.4774 1 10 316
1979167N13071 1979 43 NI AS NOT_NAMED 1979-06-17 12:00:00 TS 17.2000 68.1000 main 483 480 O________OO___ jtwc_io IO021979 17.2000 68.1000 XX 25 -5 17.2000 68.1000 TC 25 17.2000 68.1000 1 10 303
1979167N13071 1979 43 NI AS NOT_NAMED 1979-06-17 15:00:00 TS 17.4332 67.5886 main 495 492 P________PP___ IO021979 17.4375 67.5874 XX 27 -5 17.4375 67.5874 TC 27 17.4246 67.5910 1 11 291
1979167N13071 1979 43 NI AS NOT_NAMED 1979-06-17 18:00:00 TS 17.5971 67.0008 main 515 515 O________OP___ jtwc_io IO021979 17.6000 67.0000 XX 30 -5 17.6000 67.0000 TC 30 17.5912 67.0025 1 12 284
1979167N13071 1979 43 NI AS NOT_NAMED 1979-06-17 21:00:00 TS 17.7191 66.3859 main 550 550 P________PP___ IO021979 17.7226 66.3849 XX 30 -5 17.7226 66.3849 TC 30 17.7121 66.3878 1 12 280
1979167N13071 1979 43 NI AS NOT_NAMED 1979-06-18 00:00:00 TS 17.8000 65.8000 main 588 588 O________OO___ jtwc_io IO021979 17.8000 65.8000 XX 30 -5 17.8000 65.8000 TC 30 17.8000 65.8000 2 10 278
1979167N13071 1979 43 NI AS NOT_NAMED 1979-06-18 03:00:00 TS 17.8641 65.3255 main 618 618 P________PP___ IO021979 17.8572 65.3274 XX 32 -5 17.8572 65.3274 TC 32 17.8778 65.3216 2 9 277
1979167N13071 1979 43 NI AS NOT_NAMED 1979-06-18 06:00:00 TS 17.9096 64.8923 main 645 645 O________OP___ jtwc_io IO021979 17.9000 64.9000 XX 35 -5 17.9000 64.9000 TC 35 17.9288 64.8768 2 8 276
1979167N13071 1979 43 NI AS NOT_NAMED 1979-06-18 09:00:00 TS 17.9550 64.4529 main 663 621 P________PP___ IO021979 17.9498 64.4575 XX 37 -5 17.9498 64.4575 TC 37 17.9654 64.4436 2 9 276
1979167N13071 1979 43 NI AS NOT_NAMED 1979-06-18 12:00:00 TS 18.0000 64.0000 main 621 581 O________OO___ jtwc_io IO021979 18.0000 64.0000 XX 40 -5 18.0000 64.0000 TC 40 18.0000 64.0000 2 9 276
1979167N13071 1979 43 NI AS NOT_NAMED 1979-06-18 15:00:00 TS 18.0471 63.5151 main 581 534 P________PP___ IO021979 18.0499 63.5075 XX 42 -5 18.0499 63.5075 TC 42 18.0414 63.5303 2 9 276
1979167N13071 1979 43 NI AS NOT_NAMED 1979-06-18 18:00:00 TS 18.0947 63.0148 main 534 501 O________OP___ jtwc_io IO021979 18.1000 63.0000 XX 45 -5 18.1000 63.0000 TC 45 18.0842 63.0445 2 9 276
1979167N13071 1979 43 NI AS NOT_NAMED 1979-06-18 21:00:00 TS 18.1398 62.5221 main 492 442 P________PP___ IO021979 18.1422 62.5149 XX 47 -5 18.1422 62.5149 TC 47 18.1350 62.5365 2 10 276
1979167N13071 1979 43 NI AS NOT_NAMED 1979-06-19 00:00:00 TS 18.2000 62.0000 main 442 384 O________OO___ jtwc_io IO021979 18.2000 62.0000 XX 50 -5 18.2000 62.0000 TC 50 18.2000 62.0000 2 11 278
1979167N13071 1979 43 NI AS NOT_NAMED 1979-06-19 03:00:00 TS 18.2931 61.4076 main 384 323 P________PP___ IO021979 18.2924 61.4150 XX 50 -5 18.2924 61.4150 TC 50 18.2943 61.3926 2 12 280
1979167N13071 1979 43 NI AS NOT_NAMED 1979-06-19 06:00:00 TS 18.4003 60.7877 main 323 258 O________OP___ jtwc_io IO021979 18.4000 60.8000 XX 50 -5 18.4000 60.8000 TC 50 18.4009 60.7631 2 12 280
1979167N13071 1979 43 NI AS NOT_NAMED 1979-06-19 09:00:00 TS 18.5073 60.1690 main 258 194 P________PP___ IO021979 18.5075 60.1775 XX 50 -5 18.5075 60.1775 TC 50 18.5069 60.1520 2 11 280
1979167N13071 1979 43 NI AS NOT_NAMED 1979-06-19 12:00:00 TS 18.6000 59.6000 main 194 140 O________OO___ jtwc_io IO021979 18.6000 59.6000 XX 50 -5 18.6000 59.6000 TC 50 18.6000 59.6000 2 10 279
1979167N13071 1979 43 NI AS NOT_NAMED 1979-06-19 15:00:00 TS 18.6620 59.1157 main 140 100 P________PP___ IO021979 18.6574 59.1049 XX 50 -5 18.6574 59.1049 TC 50 18.6714 59.1372 2 8 277
1979167N13071 1979 43 NI AS NOT_NAMED 1979-06-19 18:00:00 TS 18.7082 58.7166 main 100 66 O________OP___ jtwc_io IO021979 18.7000 58.7000 XX 50 -5 18.7000 58.7000 TC 50 18.7245 58.7497 2 7 278
1979167N13071 1979 43 NI AS NOT_NAMED 1979-06-19 21:00:00 TS 18.7535 58.3891 main 66 38 P________PP___ IO021979 18.7476 58.3776 XX 45 -5 18.7476 58.3776 TC 45 18.7654 58.4123 2 6 279
1979167N13071 1979 43 NI AS NOT_NAMED 1979-06-20 00:00:00 TS 18.8000 58.1000 main 38 O________OO___ jtwc_io IO021979 18.8000 58.1000 XX 40 -5 18.8000 58.1000 TC 40 18.8000 58.1000 2 6 280

IBTrACS Databaseについて

本データベースは、米国NOAAが公開する1842年以降の世界の熱帯低気圧のベストトラックデータアーカイブInternational Best Track Archive for Climate Stewardship (IBTrACS)を、ウェブで閲覧しやすい形式に変換したものです。

最終更新日:2021-11-26